Time;durP1;ratioP1;P1;durP2;ratioP2;P2;SDS_P1;SDS_P2;PMS_P1;PMS_P2;Temp;Humidity;BMP_temperature;BMP_pressure;BME280_temperature;BME280_humidity;BME280_pressure;Samples;Min_cycle;Max_cycle;Signal;HPM_P1;HPM_P2
2024/03/08 00:01:41;;;;;;;8.73;5.40;;;5.30;99.90;;;;;;5083128;28;20285;-62
2024/03/08 00:04:08;;;;;;;6.30;4.90;;;5.20;99.90;;;;;;5090412;28;20200;-62
2024/03/08 00:06:35;;;;;;;7.33;5.90;;;5.20;99.90;;;;;;5085545;28;20205;-62
2024/03/08 00:09:02;;;;;;;10.23;6.13;;;5.00;99.90;;;;;;5087313;28;20208;-62
2024/03/08 00:11:29;;;;;;;4.53;4.13;;;5.10;99.90;;;;;;5086188;28;20198;-62
2024/03/08 00:13:58;;;;;;;8.47;5.43;;;5.00;99.90;;;;;;5089880;28;20593;-62
2024/03/08 00:16:27;;;;;;;10.50;6.90;;;4.90;99.90;;;;;;5088303;28;20197;-62
2024/03/08 00:18:54;;;;;;;9.63;6.03;;;4.90;99.90;;;;;;5086611;28;20213;-62
2024/03/08 00:21:21;;;;;;;7.33;4.87;;;4.80;99.90;;;;;;5081985;28;20212;-62
2024/03/08 00:23:48;;;;;;;9.13;5.70;;;4.80;99.90;;;;;;5084554;28;20199;-62
2024/03/08 00:26:15;;;;;;;7.93;5.77;;;5.00;99.90;;;;;;5086894;28;20854;-62
2024/03/08 00:28:43;;;;;;;6.93;5.03;;;4.70;99.90;;;;;;5084542;28;20256;-62
2024/03/08 00:31:10;;;;;;;6.13;5.33;;;4.60;99.90;;;;;;5079215;28;20226;-62
2024/03/08 00:33:39;;;;;;;7.23;5.37;;;4.50;99.90;;;;;;5087449;28;20219;-62
2024/03/08 00:36:07;;;;;;;6.23;4.80;;;4.50;99.90;;;;;;5090091;28;20206;-62
2024/03/08 00:38:34;;;;;;;7.17;5.57;;;4.50;99.90;;;;;;5084160;28;20682;-62
2024/03/08 00:41:02;;;;;;;9.77;6.43;;;4.30;99.90;;;;;;5078987;28;20309;-62
2024/03/08 00:43:29;;;;;;;8.90;6.57;;;4.30;99.90;;;;;;5082264;28;20192;-62
2024/03/08 00:45:57;;;;;;;8.33;5.50;;;4.30;99.90;;;;;;5080796;28;20199;-62
2024/03/08 00:48:24;;;;;;;11.57;6.17;;;4.30;99.90;;;;;;5087466;28;20289;-62
2024/03/08 00:50:53;;;;;;;9.23;5.40;;;4.20;99.90;;;;;;5083944;28;20718;-62
2024/03/08 00:53:20;;;;;;;9.83;6.13;;;4.10;99.90;;;;;;5082607;28;20213;-62
2024/03/08 00:55:47;;;;;;;6.13;5.40;;;4.10;99.90;;;;;;5089513;28;20305;-62
2024/03/08 00:58:14;;;;;;;9.43;6.40;;;4.10;99.90;;;;;;5081569;28;20686;-62
2024/03/08 01:00:41;;;;;;;7.23;5.10;;;4.10;99.90;;;;;;5088682;28;20285;-62
2024/03/08 01:03:08;;;;;;;8.63;5.67;;;4.10;99.90;;;;;;5091293;28;20247;-62
2024/03/08 01:05:35;;;;;;;7.77;4.93;;;4.00;99.90;;;;;;5088666;28;20202;-61
2024/03/08 01:08:05;;;;;;;12.50;6.60;;;4.00;99.90;;;;;;5088918;28;20297;-62
2024/03/08 01:10:32;;;;;;;7.63;5.13;;;3.90;99.90;;;;;;5089337;28;20227;-62
2024/03/08 01:12:59;;;;;;;8.33;5.30;;;3.90;99.90;;;;;;5083848;28;20229;-62
2024/03/08 01:15:26;;;;;;;8.60;5.17;;;3.80;99.90;;;;;;5083651;28;20222;-61
2024/03/08 01:17:54;;;;;;;9.57;6.37;;;3.80;99.90;;;;;;5088711;28;20206;-62
2024/03/08 01:20:21;;;;;;;9.23;6.03;;;3.70;99.90;;;;;;5089429;28;20778;-62
2024/03/08 01:22:48;;;;;;;9.60;6.07;;;3.60;99.90;;;;;;5079749;28;20209;-62
2024/03/08 01:25:16;;;;;;;8.83;7.00;;;3.60;99.90;;;;;;5088497;28;20687;-62
2024/03/08 01:27:45;;;;;;;8.50;5.30;;;3.60;99.90;;;;;;5090503;28;20200;-62
2024/03/08 01:30:12;;;;;;;8.07;5.57;;;3.60;99.90;;;;;;5083736;28;20213;-62
2024/03/08 01:32:40;;;;;;;10.20;7.37;;;3.60;99.90;;;;;;5081203;28;20231;-61
2024/03/08 01:35:09;;;;;;;9.77;5.53;;;3.50;99.90;;;;;;5083784;28;20199;-62
2024/03/08 01:37:36;;;;;;;6.43;5.17;;;3.50;99.90;;;;;;5093923;28;20202;-62
2024/03/08 01:40:04;;;;;;;8.17;5.80;;;3.40;99.90;;;;;;5092057;28;20288;-62
2024/03/08 01:42:32;;;;;;;12.53;5.80;;;3.30;99.90;;;;;;5094531;28;20202;-62
2024/03/08 01:44:59;;;;;;;8.07;5.60;;;3.30;99.90;;;;;;5084815;28;20263;-62
2024/03/08 01:47:26;;;;;;;10.13;5.70;;;3.20;99.90;;;;;;5092153;28;20250;-62
2024/03/08 01:49:54;;;;;;;9.30;5.70;;;3.30;99.90;;;;;;5085817;28;20277;-62
2024/03/08 01:52:23;;;;;;;12.30;6.73;;;3.20;99.90;;;;;;5093573;28;20207;-62
2024/03/08 01:54:51;;;;;;;9.43;6.60;;;3.20;99.90;;;;;;5092899;28;20233;-62
2024/03/08 01:57:18;;;;;;;9.13;6.63;;;3.10;99.90;;;;;;5083655;28;20215;-62
2024/03/08 01:59:46;;;;;;;11.23;6.13;;;3.10;99.90;;;;;;5086961;28;20272;-62
2024/03/08 02:02:19;;;;;;;10.47;6.97;;;2.90;99.90;;;;;;5091741;28;20256;-62
2024/03/08 02:04:47;;;;;;;11.43;6.50;;;3.00;99.90;;;;;;5086952;28;20194;-62
2024/03/08 02:07:14;;;;;;;9.43;6.33;;;2.90;99.90;;;;;;5090830;28;20214;-62
2024/03/08 02:09:41;;;;;;;14.10;8.73;;;2.90;99.90;;;;;;5096181;28;20250;-62
2024/03/08 02:12:09;;;;;;;14.23;8.50;;;2.80;99.90;;;;;;5085164;28;20259;-62
2024/03/08 02:14:36;;;;;;;16.53;8.97;;;2.90;99.90;;;;;;5093291;28;20637;-61
2024/03/08 02:17:04;;;;;;;11.40;8.23;;;2.90;99.90;;;;;;5091966;28;20206;-62
2024/03/08 02:19:32;;;;;;;12.93;8.90;;;3.00;99.90;;;;;;5090699;28;20284;-62
2024/03/08 02:22:04;;;;;;;11.90;7.97;;;2.80;99.90;;;;;;5089677;28;20581;-62
2024/03/08 02:24:31;;;;;;;16.13;9.70;;;2.80;99.90;;;;;;5087133;28;20191;-62
2024/03/08 02:26:58;;;;;;;13.40;9.83;;;2.90;99.90;;;;;;5089074;28;20288;-62
2024/03/08 02:29:25;;;;;;;13.70;8.13;;;2.80;99.90;;;;;;5090734;28;20277;-62
2024/03/08 02:31:52;;;;;;;16.40;9.97;;;2.80;99.90;;;;;;5080927;28;20208;-62
2024/03/08 02:34:20;;;;;;;13.47;9.10;;;2.80;99.90;;;;;;5082190;28;20762;-62
2024/03/08 02:36:47;;;;;;;13.57;9.17;;;2.80;99.90;;;;;;5092724;28;20201;-62
2024/03/08 02:39:15;;;;;;;16.07;10.07;;;2.70;99.90;;;;;;5091494;28;20230;-63
2024/03/08 02:41:43;;;;;;;14.33;9.00;;;2.90;99.90;;;;;;5087313;28;20196;-62
2024/03/08 02:44:10;;;;;;;14.47;9.10;;;2.80;99.90;;;;;;5088934;28;20737;-62
2024/03/08 02:46:37;;;;;;;14.20;10.07;;;2.60;99.90;;;;;;5089220;28;20261;-62
2024/03/08 02:49:04;;;;;;;17.67;9.90;;;2.80;99.90;;;;;;5086303;28;20248;-62
2024/03/08 02:51:31;;;;;;;14.80;9.03;;;2.60;99.90;;;;;;5085747;28;20275;-62
2024/03/08 02:53:58;;;;;;;16.03;10.43;;;2.70;99.90;;;;;;5084309;28;20305;-62
2024/03/08 02:56:27;;;;;;;16.97;9.80;;;2.50;99.90;;;;;;5094950;28;20199;-62
2024/03/08 02:58:54;;;;;;;17.00;9.07;;;2.60;99.90;;;;;;5091882;28;20197;-62
2024/03/08 03:01:22;;;;;;;16.37;10.43;;;2.60;99.90;;;;;;5084579;28;20203;-62
2024/03/08 03:03:49;;;;;;;14.13;9.70;;;2.50;99.90;;;;;;5082180;28;20250;-62
2024/03/08 03:06:16;;;;;;;15.53;8.93;;;2.50;99.90;;;;;;5090999;28;20727;-62
2024/03/08 03:08:45;;;;;;;15.53;9.73;;;2.50;99.90;;;;;;5090520;28;20230;-62
2024/03/08 03:11:13;;;;;;;14.23;8.67;;;2.40;99.90;;;;;;5083931;28;20223;-62
2024/03/08 03:13:42;;;;;;;13.40;9.03;;;2.50;99.90;;;;;;5091382;28;20219;-61
2024/03/08 03:16:10;;;;;;;14.77;9.63;;;2.40;99.90;;;;;;5082072;28;20723;-62
2024/03/08 03:18:37;;;;;;;14.30;8.83;;;2.30;99.90;;;;;;5085128;28;20689;-62
2024/03/08 03:21:07;;;;;;;15.63;10.13;;;2.50;99.90;;;;;;5083924;28;20653;-62
2024/03/08 03:23:34;;;;;;;17.43;9.80;;;2.30;99.90;;;;;;5084322;28;20203;-62
2024/03/08 03:26:02;;;;;;;15.83;9.10;;;2.40;99.90;;;;;;5091776;28;20810;-62
2024/03/08 03:28:29;;;;;;;18.07;10.10;;;2.20;99.90;;;;;;5083575;28;20200;-62
2024/03/08 03:30:58;;;;;;;16.70;10.37;;;2.20;99.90;;;;;;5083136;28;20268;-62
2024/03/08 03:33:25;;;;;;;16.57;9.60;;;2.20;99.90;;;;;;5080748;28;20231;-62
2024/03/08 03:35:52;;;;;;;18.23;11.30;;;2.20;99.90;;;;;;5086142;28;20681;-62
2024/03/08 03:38:23;;;;;;;14.20;9.77;;;2.30;99.90;;;;;;5077390;28;20756;-62
2024/03/08 03:40:52;;;;;;;16.70;9.83;;;2.30;99.90;;;;;;5082173;28;20218;-62
2024/03/08 03:43:19;;;;;;;18.17;10.60;;;2.30;99.90;;;;;;5088328;28;20210;-62
2024/03/08 03:45:46;;;;;;;17.43;10.00;;;2.20;99.90;;;;;;5086199;28;20665;-62
2024/03/08 03:48:14;;;;;;;19.27;10.77;;;2.20;99.90;;;;;;5085184;28;20725;-62
2024/03/08 03:50:41;;;;;;;17.80;11.53;;;2.30;99.90;;;;;;5081880;28;20248;-62
2024/03/08 03:53:09;;;;;;;21.87;13.27;;;2.40;99.90;;;;;;5076407;28;20229;-62
2024/03/08 03:55:36;;;;;;;22.70;11.90;;;2.20;99.90;;;;;;5091999;28;20222;-62
2024/03/08 03:58:03;;;;;;;22.97;12.70;;;2.10;99.90;;;;;;5090745;28;20199;-62
2024/03/08 04:00:31;;;;;;;15.17;10.37;;;2.20;99.90;;;;;;5087119;28;20222;-62
2024/03/08 04:03:00;;;;;;;22.37;11.90;;;2.10;99.90;;;;;;5086400;28;20268;-62
2024/03/08 04:05:28;;;;;;;23.30;12.83;;;2.10;99.90;;;;;;5082238;28;20287;-62
2024/03/08 04:07:55;;;;;;;18.43;11.27;;;2.00;99.90;;;;;;5092336;28;20207;-62
2024/03/08 04:10:22;;;;;;;20.37;12.17;;;2.00;99.90;;;;;;5092764;28;20234;-62
2024/03/08 04:12:49;;;;;;;21.77;12.00;;;2.00;99.90;;;;;;5092433;28;20203;-62
2024/03/08 04:15:16;;;;;;;21.37;11.13;;;2.10;99.90;;;;;;5091659;28;20248;-62
2024/03/08 04:17:46;;;;;;;21.10;11.50;;;1.90;99.90;;;;;;5090550;28;20252;-62
2024/03/08 04:20:14;;;;;;;22.77;11.67;;;1.80;99.90;;;;;;5115165;22;20319;-61
2024/03/08 04:22:43;;;;;;;23.03;12.63;;;1.90;99.90;;;;;;5099337;28;20646;-61
2024/03/08 04:25:10;;;;;;;23.40;13.07;;;1.90;99.90;;;;;;5109217;28;20198;-61
2024/03/08 04:27:37;;;;;;;19.83;11.00;;;1.90;99.90;;;;;;5112048;28;20252;-61
2024/03/08 04:30:07;;;;;;;23.77;14.13;;;1.80;99.90;;;;;;5119091;27;20228;-61
2024/03/08 04:32:34;;;;;;;23.83;14.03;;;1.80;99.90;;;;;;5118511;27;20202;-61
2024/03/08 04:35:03;;;;;;;22.40;12.23;;;1.10;99.90;;;;;;5119781;27;20221;-61
2024/03/08 04:37:30;;;;;;;23.77;14.23;;;2.00;99.90;;;;;;5127847;27;20261;-60
2024/03/08 04:39:59;;;;;;;22.07;12.60;;;1.90;99.90;;;;;;5121669;27;20219;-60
2024/03/08 04:42:26;;;;;;;20.87;12.47;;;1.80;99.90;;;;;;5122509;27;20204;-61
2024/03/08 04:44:54;;;;;;;22.40;13.13;;;2.00;99.90;;;;;;5113297;27;20251;-60
2024/03/08 04:47:21;;;;;;;24.10;13.67;;;1.90;99.90;;;;;;5112085;28;20617;-61
2024/03/08 04:49:48;;;;;;;22.63;12.97;;;1.70;99.90;;;;;;5111946;28;20279;-61
2024/03/08 04:52:15;;;;;;;25.27;13.70;;;1.70;99.90;;;;;;5111604;28;20250;-61
2024/03/08 04:54:42;;;;;;;25.23;13.70;;;1.70;99.90;;;;;;5109917;28;20656;-61
2024/03/08 04:57:10;;;;;;;23.37;13.53;;;1.90;99.90;;;;;;5119733;28;20209;-61
2024/03/08 04:59:37;;;;;;;19.70;11.33;;;1.80;99.90;;;;;;5123599;28;20213;-61
2024/03/08 05:02:05;;;;;;;22.73;13.00;;;1.60;99.90;;;;;;5098666;28;20202;-60
2024/03/08 05:04:32;;;;;;;29.63;15.20;;;1.60;99.90;;;;;;5091358;28;20251;-61
2024/03/08 05:07:00;;;;;;;29.03;15.33;;;1.70;99.90;;;;;;5090551;28;20679;-61
2024/03/08 05:09:28;;;;;;;25.90;14.43;;;1.70;99.90;;;;;;5103168;27;20220;-61
2024/03/08 05:11:56;;;;;;;33.47;15.83;;;1.80;99.90;;;;;;5127421;27;20676;-61
2024/03/08 05:14:25;;;;;;;29.00;17.07;;;1.80;99.90;;;;;;5136353;27;20221;-61
2024/03/08 05:16:52;;;;;;;30.13;15.40;;;1.70;99.90;;;;;;5131213;27;20210;-61
2024/03/08 05:19:20;;;;;;;28.80;14.37;;;1.70;99.90;;;;;;5115140;27;20193;-60
2024/03/08 05:21:48;;;;;;;30.53;16.80;;;1.70;99.90;;;;;;5115143;28;20757;-61
2024/03/08 05:24:16;;;;;;;25.97;15.60;;;1.80;99.90;;;;;;5115661;28;20304;-61
2024/03/08 05:26:43;;;;;;;30.27;16.60;;;1.70;99.90;;;;;;5114639;28;20202;-61
2024/03/08 05:29:10;;;;;;;27.43;16.00;;;1.80;99.90;;;;;;5115324;28;20741;-61
2024/03/08 05:31:47;;;;;;;30.07;16.10;;;1.90;99.90;;;;;;5115079;28;20806;-60
2024/03/08 05:34:14;;;;;;;27.90;15.90;;;1.80;99.90;;;;;;5114800;28;20262;-61
2024/03/08 05:36:44;;;;;;;30.27;16.83;;;1.70;99.90;;;;;;5114626;28;20201;-61
2024/03/08 05:39:11;;;;;;;30.07;15.40;;;1.70;99.90;;;;;;5113832;27;20194;-61
2024/03/08 05:41:38;;;;;;;30.93;15.73;;;1.80;99.90;;;;;;5114286;28;20592;-61
2024/03/08 05:44:06;;;;;;;30.93;16.07;;;1.70;99.90;;;;;;5114736;27;20836;-60
2024/03/08 05:46:33;;;;;;;24.63;15.13;;;1.60;99.90;;;;;;5114251;28;20194;-60
2024/03/08 05:49:05;;;;;;;33.17;16.83;;;1.70;99.90;;;;;;5114554;28;20209;-60
2024/03/08 05:51:34;;;;;;;28.37;14.83;;;1.80;99.90;;;;;;5107622;28;20304;-61
2024/03/08 05:54:02;;;;;;;24.87;14.97;;;1.70;99.90;;;;;;5115048;28;20232;-61
2024/03/08 05:56:29;;;;;;;23.73;13.03;;;1.80;99.90;;;;;;5114179;28;20197;-60
2024/03/08 05:58:57;;;;;;;27.13;14.13;;;1.90;99.90;;;;;;5122768;27;20284;-60
2024/03/08 06:01:24;;;;;;;21.60;14.00;;;1.70;99.90;;;;;;5114480;28;20260;-60
2024/03/08 06:03:53;;;;;;;26.80;14.40;;;1.90;99.90;;;;;;5114766;28;20672;-60
2024/03/08 06:06:22;;;;;;;25.00;13.77;;;2.30;99.90;;;;;;5114035;28;20228;-61
2024/03/08 06:08:49;;;;;;;23.37;14.33;;;1.90;99.90;;;;;;5122252;27;20209;-60
2024/03/08 06:11:17;;;;;;;24.03;13.23;;;2.20;99.90;;;;;;5114447;28;20221;-61
2024/03/08 06:13:45;;;;;;;24.43;13.60;;;2.10;99.90;;;;;;5114893;27;20292;-61
2024/03/08 06:16:12;;;;;;;18.80;11.60;;;2.20;99.90;;;;;;5115542;27;20221;-60
2024/03/08 06:18:39;;;;;;;14.87;9.20;;;2.10;99.90;;;;;;5113630;28;20668;-60
2024/03/08 06:21:06;;;;;;;14.73;9.50;;;2.20;99.90;;;;;;5114269;28;20236;-60
2024/03/08 06:23:38;;;;;;;15.20;9.90;;;2.30;99.90;;;;;;5114604;28;20198;-60
2024/03/08 06:26:05;;;;;;;16.17;9.70;;;2.30;99.90;;;;;;5113453;28;20199;-60
2024/03/08 06:28:32;;;;;;;13.80;8.07;;;2.50;99.90;;;;;;5113797;27;20201;-60
2024/03/08 06:31:00;;;;;;;15.80;9.40;;;2.30;99.90;;;;;;5114395;27;20329;-61
2024/03/08 06:33:27;;;;;;;15.53;10.23;;;2.40;99.90;;;;;;5114347;28;20202;-60
2024/03/08 06:35:57;;;;;;;13.00;8.80;;;2.70;99.90;;;;;;5113416;28;20308;-61
2024/03/08 06:38:24;;;;;;;16.27;9.77;;;2.80;99.90;;;;;;5111965;28;20441;-62
2024/03/08 06:40:52;;;;;;;14.63;9.80;;;2.90;99.90;;;;;;5112272;28;20439;-62
2024/03/08 06:43:20;;;;;;;14.40;9.73;;;3.20;99.90;;;;;;5111283;27;20250;-59
2024/03/08 06:45:49;;;;;;;16.50;9.93;;;3.90;99.90;;;;;;5113332;28;20251;-63
2024/03/08 06:48:16;;;;;;;18.23;9.90;;;4.40;99.90;;;;;;5110896;28;20293;-63
2024/03/08 06:50:44;;;;;;;19.63;10.87;;;4.70;99.90;;;;;;5113755;28;20274;-63
2024/03/08 06:53:11;;;;;;;16.20;10.10;;;5.10;99.90;;;;;;5113626;28;20293;-63
2024/03/08 06:55:38;;;;;;;16.37;10.43;;;5.30;99.90;;;;;;5112879;28;20223;-63
2024/03/08 06:58:07;;;;;;;17.27;11.03;;;5.60;99.90;;;;;;5113311;28;20210;-63
2024/03/08 07:00:34;;;;;;;20.60;10.13;;;6.00;99.90;;;;;;5113526;28;20247;-61
2024/03/08 07:03:01;;;;;;;13.80;8.70;;;6.30;99.90;;;;;;5113718;28;20674;-60
2024/03/08 07:05:28;;;;;;;13.33;8.20;;;6.10;99.90;;;;;;5103742;28;20663;-60
2024/03/08 07:07:55;;;;;;;13.00;8.90;;;5.90;99.90;;;;;;5111312;28;20213;-60
2024/03/08 07:10:24;;;;;;;10.40;6.60;;;6.30;99.90;;;;;;5113018;28;20245;-61
2024/03/08 07:12:51;;;;;;;7.90;6.47;;;6.70;99.90;;;;;;5113424;28;20201;-60
2024/03/08 07:15:20;;;;;;;8.33;6.33;;;6.90;99.90;;;;;;5110752;28;20696;-60
2024/03/08 07:17:48;;;;;;;6.83;5.13;;;6.80;99.90;;;;;;5113057;28;20220;-60
2024/03/08 07:20:18;;;;;;;6.83;6.13;;;6.80;99.90;;;;;;5112975;28;20738;-60
2024/03/08 07:22:47;;;;;;;11.60;7.23;;;7.00;99.90;;;;;;5113119;28;20750;-61
2024/03/08 07:25:24;;;;;;;8.57;6.33;;;7.10;99.90;;;;;;5112988;27;20205;-60
2024/03/08 07:27:52;;;;;;;10.77;5.83;;;6.90;99.90;;;;;;5118359;27;20234;-60
2024/03/08 07:33:06;;;;;;;8.77;6.20;;;6.50;99.90;;;;;;5112450;28;20295;-62
2024/03/08 07:35:36;;;;;;;10.27;7.17;;;6.40;99.90;;;;;;5105828;27;20911;-62
2024/03/08 07:38:05;;;;;;;10.70;7.40;;;6.40;99.90;;;;;;5112413;28;20296;-61
2024/03/08 07:40:32;;;;;;;10.17;7.67;;;6.40;99.90;;;;;;5111032;28;20696;-62
2024/03/08 07:43:00;;;;;;;14.03;8.93;;;6.20;99.90;;;;;;5112691;28;20198;-61
2024/03/08 07:45:28;;;;;;;17.93;10.47;;;6.10;99.90;;;;;;5111220;28;20200;-61
2024/03/08 07:47:55;;;;;;;16.07;9.73;;;6.10;99.90;;;;;;5112997;27;20213;-64
2024/03/08 07:50:23;;;;;;;14.30;10.47;;;6.40;99.90;;;;;;5112197;28;20247;-63
2024/03/08 07:52:50;;;;;;;14.60;9.13;;;6.80;99.90;;;;;;5111561;28;20293;-63
2024/03/08 07:55:18;;;;;;;13.60;9.60;;;7.20;99.90;;;;;;5111120;28;20246;-65
2024/03/08 07:57:47;;;;;;;15.40;10.13;;;7.60;99.90;;;;;;5112599;28;20203;-65
2024/03/08 08:00:17;;;;;;;14.53;10.17;;;8.10;99.90;;;;;;5111521;28;20312;-62
2024/03/08 08:02:46;;;;;;;12.97;9.63;;;8.40;99.90;;;;;;5112165;27;20206;-64
2024/03/08 08:05:13;;;;;;;9.10;7.53;;;8.30;99.90;;;;;;5105363;27;20284;-62
2024/03/08 08:07:45;;;;;;;10.80;8.00;;;7.80;99.90;;;;;;5108351;28;20581;-63
2024/03/08 08:10:18;;;;;;;12.23;8.70;;;7.40;99.90;;;;;;5109746;27;20665;-62
2024/03/08 08:12:46;;;;;;;12.77;8.30;;;6.90;99.90;;;;;;5111421;28;20198;-63
2024/03/08 08:15:14;;;;;;;13.70;8.53;;;6.80;99.90;;;;;;5111151;28;20659;-63
2024/03/08 08:17:47;;;;;;;16.03;8.87;;;6.70;99.90;;;;;;5105398;28;20284;-64
2024/03/08 08:20:15;;;;;;;14.77;9.77;;;6.80;99.90;;;;;;5111611;28;20286;-64
2024/03/08 08:22:44;;;;;;;18.57;10.37;;;6.80;99.90;;;;;;5112130;28;20198;-64
2024/03/08 08:25:12;;;;;;;12.80;9.00;;;6.80;99.90;;;;;;5111184;28;20195;-66
2024/03/08 08:27:42;;;;;;;16.63;11.40;;;6.70;99.90;;;;;;5112271;28;20197;-64
2024/03/08 08:30:11;;;;;;;22.00;14.03;;;6.60;99.90;;;;;;5111583;28;20230;-62
2024/03/08 08:32:42;;;;;;;21.83;12.33;;;6.60;99.90;;;;;;5111954;28;20217;-64
2024/03/08 08:35:12;;;;;;;20.47;11.33;;;6.40;99.90;;;;;;5106687;28;20663;-64
2024/03/08 08:37:40;;;;;;;20.73;12.47;;;6.20;99.90;;;;;;5111376;28;20249;-62
2024/03/08 08:40:10;;;;;;;22.30;13.03;;;6.30;99.90;;;;;;5111257;28;20233;-64
2024/03/08 08:42:41;;;;;;;22.13;12.33;;;6.00;99.90;;;;;;5111976;28;20205;-60
2024/03/08 08:45:09;;;;;;;22.53;13.90;;;5.90;99.90;;;;;;5110072;28;20205;-63
2024/03/08 08:47:36;;;;;;;24.47;15.27;;;6.00;99.90;;;;;;5116439;28;20620;-63
2024/03/08 08:50:04;;;;;;;24.90;13.23;;;6.00;99.90;;;;;;5112301;28;20244;-63
2024/03/08 08:52:34;;;;;;;24.70;13.97;;;5.90;99.90;;;;;;5109276;28;20290;-63
2024/03/08 08:55:03;;;;;;;24.10;14.73;;;5.70;99.90;;;;;;5108790;28;20209;-63
2024/03/08 08:57:32;;;;;;;21.73;13.80;;;5.70;99.90;;;;;;5111877;28;20202;-63
2024/03/08 09:00:00;;;;;;;20.17;12.93;;;5.80;99.90;;;;;;5111299;28;20229;-63
2024/03/08 09:02:27;;;;;;;20.43;12.97;;;5.90;99.90;;;;;;5111695;28;20226;-63
2024/03/08 09:04:54;;;;;;;22.57;13.80;;;6.00;99.90;;;;;;5110781;28;20257;-63
2024/03/08 09:07:21;;;;;;;20.57;13.17;;;5.80;99.90;;;;;;5105417;28;20201;-63
2024/03/08 09:09:50;;;;;;;23.80;13.67;;;6.30;99.90;;;;;;5111279;28;20222;-63
2024/03/08 09:12:17;;;;;;;24.57;13.50;;;6.40;99.90;;;;;;5116094;28;20204;-63
2024/03/08 09:14:44;;;;;;;24.03;13.27;;;6.70;99.90;;;;;;5111333;28;20284;-63
2024/03/08 09:17:11;;;;;;;22.43;14.40;;;6.80;99.90;;;;;;5110458;28;20314;-62
2024/03/08 09:19:39;;;;;;;20.33;12.73;;;6.50;99.90;;;;;;5107733;28;20235;-61
2024/03/08 09:22:06;;;;;;;21.03;12.33;;;6.50;99.90;;;;;;5109302;28;20218;-61
2024/03/08 09:24:33;;;;;;;17.70;11.70;;;6.50;99.90;;;;;;5109354;28;20884;-61
2024/03/08 09:27:01;;;;;;;20.47;12.67;;;6.60;99.90;;;;;;5109028;28;20715;-61
2024/03/08 09:29:29;;;;;;;21.33;12.23;;;6.90;99.90;;;;;;5109889;28;20204;-61
2024/03/08 09:31:56;;;;;;;20.23;12.77;;;6.50;99.90;;;;;;5109957;28;20209;-61
2024/03/08 09:34:23;;;;;;;20.00;13.20;;;;;;;;;;5110467;28;20635;-60
2024/03/08 09:36:50;;;;;;;19.23;12.03;;;6.70;99.90;;;;;;5110320;28;20221;-61
2024/03/08 09:39:19;;;;;;;20.43;12.83;;;6.90;99.90;;;;;;5111288;28;20215;-60
2024/03/08 09:41:47;;;;;;;20.27;13.97;;;7.30;99.90;;;;;;5111146;28;20701;-60
2024/03/08 09:44:16;;;;;;;20.47;12.33;;;7.40;99.90;;;;;;5111112;28;20201;-61
2024/03/08 09:46:43;;;;;;;19.53;11.70;;;7.80;99.90;;;;;;5110668;28;20249;-61
2024/03/08 09:49:11;;;;;;;15.50;10.17;;;8.00;99.90;;;;;;5111350;28;20198;-60
2024/03/08 09:51:40;;;;;;;19.67;11.07;;;7.90;99.90;;;;;;5110936;28;20206;-61
2024/03/08 09:54:07;;;;;;;20.90;11.83;;;8.00;99.90;;;;;;5111045;28;20255;-61
2024/03/08 09:56:36;;;;;;;16.57;10.07;;;8.00;99.90;;;;;;5113508;28;20271;-60
2024/03/08 09:59:40;;;;;;;15.27;10.80;;;8.40;99.90;;;;;;5114716;28;20197;-60
2024/03/08 10:02:14;;;;;;;16.03;10.53;;;8.40;99.90;;;;;;5114739;27;20199;-60
2024/03/08 10:04:42;;;;;;;16.13;10.83;;;9.00;99.90;;;;;;5115128;28;20236;-61
2024/03/08 10:07:09;;;;;;;17.47;11.27;;;9.60;99.90;;;;;;5113661;28;20194;-60
2024/03/08 10:09:36;;;;;;;13.83;10.17;;;9.80;99.90;;;;;;5114430;28;20768;-61
2024/03/08 10:12:03;;;;;;;13.63;9.70;;;9.70;99.90;;;;;;5110949;28;20203;-61
2024/03/08 10:14:31;;;;;;;16.03;10.93;;;9.90;99.90;;;;;;5126078;27;20288;-61
2024/03/08 10:16:59;;;;;;;13.20;9.60;;;;;;;;;;5125884;27;20212;-61
2024/03/08 10:19:29;;;;;;;11.93;8.70;;;9.60;99.90;;;;;;5134961;27;20236;-61
2024/03/08 10:21:58;;;;;;;15.73;9.43;;;10.00;99.90;;;;;;5103933;22;20233;-64
2024/03/08 10:24:25;;;;;;;13.47;9.07;;;10.80;99.90;;;;;;5074334;28;20207;-64
2024/03/08 10:26:54;;;;;;;14.53;9.60;;;11.40;99.90;;;;;;5073606;28;20203;-65
2024/03/08 10:29:21;;;;;;;14.27;9.40;;;12.30;99.90;;;;;;5074355;28;20294;-65
2024/03/08 10:31:50;;;;;;;13.23;10.20;;;12.10;99.90;;;;;;5090897;28;20231;-65
2024/03/08 10:34:17;;;;;;;15.50;10.13;;;12.10;99.90;;;;;;5094079;28;20267;-64
2024/03/08 10:36:47;;;;;;;14.73;9.73;;;11.40;99.90;;;;;;5094824;28;20718;-64
2024/03/08 10:39:22;;;;;;;13.43;8.77;;;10.70;99.90;;;;;;5096249;28;20290;-64
2024/03/08 10:41:54;;;;;;;15.97;9.67;;;10.40;99.90;;;;;;5093465;28;20271;-64
2024/03/08 10:44:40;;;;;;;11.43;8.50;;;11.10;99.90;;;;;;5094345;28;20298;-64
2024/03/08 10:47:19;;;;;;;12.13;9.20;;;11.70;99.90;;;;;;5093463;28;20202;-65
2024/03/08 10:49:55;;;;;;;14.63;10.40;;;12.60;99.90;;;;;;5094323;28;20203;-65
2024/03/08 10:52:24;;;;;;;16.10;9.67;;;12.90;99.90;;;;;;5093664;28;20206;-64
2024/03/08 10:54:55;;;;;;;15.20;11.27;;;12.50;99.90;;;;;;5091316;28;20564;-65
2024/03/08 10:57:24;;;;;;;14.33;10.93;;;11.50;99.90;;;;;;5094121;28;20602;-64
2024/03/08 10:59:52;;;;;;;14.43;9.53;;;10.20;99.90;;;;;;5091831;28;20757;-64
2024/03/08 11:02:20;;;;;;;14.80;10.17;;;10.30;99.90;;;;;;5094213;28;20225;-64
2024/03/08 11:04:48;;;;;;;16.30;11.53;;;10.10;99.90;;;;;;5093815;28;20203;-64
2024/03/08 11:07:19;;;;;;;15.80;11.10;;;9.90;99.90;;;;;;5091984;28;20305;-64
2024/03/08 11:09:49;;;;;;;18.73;11.37;;;10.10;99.90;;;;;;5093741;28;20202;-64
2024/03/08 11:12:25;;;;;;;13.43;10.33;;;10.40;99.90;;;;;;5093421;28;20227;-64
2024/03/08 11:14:53;;;;;;;14.97;11.37;;;10.30;99.90;;;;;;5092922;28;20292;-66
2024/03/08 11:17:43;;;;;;;15.33;10.27;;;10.20;99.90;;;;;;5093534;28;20301;-64
2024/03/08 11:20:16;;;;;;;14.47;10.33;;;10.00;99.90;;;;;;5093449;28;20272;-64
2024/03/08 11:22:50;;;;;;;16.20;11.67;;;10.00;99.90;;;;;;5068622;28;20209;-64
2024/03/08 11:25:36;;;;;;;17.35;12.30;;;10.20;99.90;;;;;;5067943;28;20461;-64
2024/03/08 11:28:17;;;;;;;15.27;10.83;;;9.80;99.90;;;;;;5071058;28;20203;-66
2024/03/08 11:30:46;;;;;;;17.23;11.70;;;9.40;99.90;;;;;;5066093;28;20243;-62
2024/03/08 11:33:14;;;;;;;20.47;11.30;;;9.10;99.90;;;;;;5071595;28;20203;-62
2024/03/08 11:35:42;;;;;;;14.37;10.90;;;;;;;;;;5072131;28;20230;-62
2024/03/08 11:38:09;;;;;;;16.50;11.20;;;8.80;99.90;;;;;;5072919;28;20673;-62
2024/03/08 11:40:40;;;;;;;17.27;11.20;;;8.80;99.90;;;;;;5058981;28;20311;-62
2024/03/08 11:43:08;;;;;;;16.90;11.23;;;;;;;;;;5052846;28;20207;-62
2024/03/08 11:45:36;;;;;;;16.93;11.83;;;8.70;99.90;;;;;;5063706;28;20228;-62
2024/03/08 11:48:04;;;;;;;15.00;10.93;;;9.00;99.90;;;;;;5072757;28;20278;-62
2024/03/08 11:50:33;;;;;;;19.63;11.43;;;;;;;;;;5072571;28;20812;-62
2024/03/08 11:53:04;;;;;;;14.40;11.75;;;9.20;99.90;;;;;;5071423;28;20975;-62
2024/03/08 11:55:31;;;;;;;18.07;11.40;;;9.40;99.90;;;;;;5071398;28;20766;-62
2024/03/08 11:58:04;;;;;;;19.07;11.83;;;9.60;99.90;;;;;;5071422;28;20226;-62
2024/03/08 12:00:35;;;;;;;16.43;12.10;;;9.40;99.90;;;;;;5072210;28;20214;-62
2024/03/08 12:03:06;;;;;;;17.23;11.77;;;9.40;99.90;;;;;;5072594;28;20289;-62
2024/03/08 12:05:34;;;;;;;17.23;12.63;;;;;;;;;;5071845;28;20201;-62
2024/03/08 12:08:02;;;;;;;15.33;11.27;;;9.20;99.90;;;;;;5072396;28;20288;-61
2024/03/08 12:10:29;;;;;;;19.67;12.57;;;;;;;;;;5071063;28;20234;-61
2024/03/08 12:12:59;;;;;;;14.97;11.50;;;9.10;99.90;;;;;;5075441;28;20194;-62
2024/03/08 12:15:29;;;;;;;15.67;11.13;;;8.90;99.90;;;;;;5087903;28;20202;-62
2024/03/08 12:17:57;;;;;;;18.57;12.70;;;9.00;99.90;;;;;;5092259;28;20220;-62
2024/03/08 12:20:26;;;;;;;14.00;11.07;;;9.20;99.90;;;;;;5076912;28;20235;-62
2024/03/08 12:22:56;;;;;;;18.00;12.80;;;;;;;;;;5066768;28;20209;-62
2024/03/08 12:25:27;;;;;;;21.50;13.27;;;9.40;99.90;;;;;;5067906;28;20199;-62
2024/03/08 12:27:56;;;;;;;17.40;12.87;;;9.30;99.90;;;;;;5065560;28;20195;-62
2024/03/08 12:30:26;;;;;;;17.63;12.30;;;9.20;99.90;;;;;;5055438;28;20228;-62
2024/03/08 12:32:57;;;;;;;16.43;12.37;;;9.10;99.90;;;;;;5070849;28;20207;-62
2024/03/08 12:35:25;;;;;;;16.90;12.17;;;9.10;99.90;;;;;;5068196;28;20734;-62
2024/03/08 12:37:54;;;;;;;19.87;13.70;;;9.30;99.90;;;;;;5057165;28;20226;-62
2024/03/08 12:40:28;;;;;;;18.03;14.03;;;9.00;99.90;;;;;;5057886;28;20729;-62
2024/03/08 12:42:57;;;;;;;16.70;11.77;;;9.00;99.90;;;;;;5066646;28;20215;-67
2024/03/08 12:45:24;;;;;;;15.93;11.70;;;9.00;99.90;;;;;;5071105;28;20230;-68
2024/03/08 12:47:52;;;;;;;20.07;13.50;;;;;;;;;;5071629;28;20281;-67
2024/03/08 12:50:24;;;;;;;18.07;12.10;;;9.10;99.90;;;;;;5071180;28;20219;-66
2024/03/08 12:52:52;;;;;;;17.07;12.23;;;;;;;;;;5065479;28;20274;-66
2024/03/08 12:55:19;;;;;;;13.93;10.67;;;;;;;;;;5064732;28;20584;-66